Time;durP1;ratioP1;P1;durP2;ratioP2;P2;SDS_P1;SDS_P2;PMS_P1;PMS_P2;Temp;Humidity;BMP_temperature;BMP_pressure;BME280_temperature;BME280_humidity;BME280_pressure;Samples;Min_cycle;Max_cycle;Signal;HPM_P1;HPM_P2
2023/09/30 00:01:52;;;;;;;;;;;;;;;;;;4395859;32;66298;-73
2023/09/30 00:04:40;;;;;;;2.30;1.37;;;;;;;;;;4383783;32;65760;-74
2023/09/30 00:07:27;;;;;;;;;;;;;;;;;;4383551;32;60387;-73
2023/09/30 00:10:14;;;;;;;2.42;1.30;;;;;;;;;;4372302;32;70934;-73
2023/09/30 00:13:01;;;;;;;3.75;1.50;;;;;;;;;;4382668;32;68103;-74
2023/09/30 00:15:48;;;;;;;2.12;1.52;;;;;;;;;;4383459;32;66629;-73
2023/09/30 00:18:35;;;;;;;4.32;2.17;;;;;;;;;;4372111;32;71553;-73
2023/09/30 00:21:22;;;;;;;2.50;1.70;;;;;;;;;;4372682;32;64843;-73
2023/09/30 00:24:09;;;;;;;4.30;1.80;;;;;;;;;;4383729;32;69471;-73
2023/09/30 00:26:56;;;;;;;4.45;2.12;;;;;;;;;;4383414;32;66659;-74
2023/09/30 00:29:43;;;;;;;;;;;;;;;;;;4383551;32;71914;-73
2023/09/30 00:32:30;;;;;;;2.60;1.80;;;;;;;;;;4382667;32;67104;-74
2023/09/30 00:35:17;;;;;;;3.50;1.83;;;;;;;;;;4371933;32;67761;-73
2023/09/30 00:38:04;;;;;;;;;;;;;;;;;;4395707;32;59926;-72
2023/09/30 00:40:50;;;;;;;2.60;1.70;;;;;;;;;;4393837;32;70599;-71
2023/09/30 00:43:37;;;;;;;2.33;1.58;;;;;;;;;;4378219;32;69050;-73
2023/09/30 00:46:29;;;;;;;;;;;;;;;;;;4372554;32;67406;-73
2023/09/30 00:49:18;;;;;;;4.62;2.15;;;;;;;;;;4385211;32;59208;-73
2023/09/30 00:52:04;;;;;;;2.42;1.70;;;;;;;;;;4383251;32;69379;-73
2023/09/30 00:54:52;;;;;;;2.30;1.67;;;;;;;;;;4372717;32;69015;-73
2023/09/30 00:57:39;;;;;;;3.20;1.50;;;;;;;;;;4351266;32;68435;-74
2023/09/30 01:00:28;;;;;;;4.00;1.40;;;;;;;;;;4372573;32;71782;-74
2023/09/30 01:03:15;;;;;;;2.25;1.62;;;;;;;;;;4382679;32;66077;-73
2023/09/30 01:06:02;;;;;;;4.07;1.62;;;;;;;;;;4362124;32;66759;-73
2023/09/30 01:08:48;;;;;;;1.77;1.50;;;;;;;;;;4383416;32;60363;-73
2023/09/30 01:11:35;;;;;;;;;;;;;;;;;;4372697;32;69401;-73
2023/09/30 01:14:38;;;;;;;2.70;1.50;;;;;;;;;;4382772;32;66497;-73
2023/09/30 01:17:25;;;;;;;3.50;1.65;;;;;;;;;;4361477;32;68429;-72
2023/09/30 01:20:16;;;;;;;;;;;;;;;;;;4362028;32;60686;-73
2023/09/30 01:23:03;;;;;;;3.78;1.58;;;;;;;;;;4383290;32;70375;-73
2023/09/30 01:25:52;;;;;;;2.10;1.70;;;;;;;;;;4361749;32;69100;-73
2023/09/30 01:28:42;;;;;;;3.58;1.60;;;;;;;;;;4382893;32;67678;-72
2023/09/30 01:31:29;;;;;;;1.90;1.45;;;;;;;;;;4381877;32;72652;-73
2023/09/30 01:34:17;;;;;;;3.80;1.55;;;;;;;;;;4382852;32;65516;-74
2023/09/30 01:37:04;;;;;;;2.60;1.62;;;;;;;;;;4372608;32;67962;-72
2023/09/30 01:39:54;;;;;;;2.15;1.35;;;;;;;;;;4382930;32;67420;-72
2023/09/30 01:42:42;;;;;;;1.85;1.48;;;;;;;;;;4382668;32;71597;-73
2023/09/30 01:45:29;;;;;;;4.68;1.95;;;;;;;;;;4372350;32;65918;-72
2023/09/30 01:48:15;;;;;;;;;;;;;;;;;;4382964;32;67607;-72
2023/09/30 01:51:02;;;;;;;1.83;1.40;;;;;;;;;;4361400;32;59993;-72
2023/09/30 01:53:49;;;;;;;;;;;;;;;;;;4372211;32;70491;-72
2023/09/30 01:56:36;;;;;;;2.70;1.87;;;;;;;;;;4370790;32;69838;-73
2023/09/30 01:59:24;;;;;;;3.33;1.85;;;;;;;;;;4360643;32;68940;-73
2023/09/30 02:02:11;;;;;;;3.30;1.80;;;;;;;;;;4372130;32;59270;-73
2023/09/30 02:04:58;;;;;;;3.00;1.90;;;;;;;;;;4381829;32;72270;-73
2023/09/30 02:07:45;;;;;;;2.70;1.65;;;;;;;;;;4383852;32;69281;-72
2023/09/30 02:10:33;;;;;;;3.70;1.95;;;;;;;;;;4360632;32;69403;-73
2023/09/30 02:13:20;;;;;;;3.17;1.58;;;;;;;;;;4360462;32;72667;-73
2023/09/30 02:16:15;;;;;;;2.97;1.67;;;;;;;;;;4371829;32;65019;-73
2023/09/30 02:19:02;;;;;;;2.12;1.83;;;;;;;;;;4361233;32;67489;-74
2023/09/30 02:21:49;;;;;;;4.32;2.65;;;;;;;;;;4371909;32;59899;-73
2023/09/30 02:24:35;;;;;;;4.45;3.00;;;;;;;;;;4383281;32;70542;-73
2023/09/30 02:27:22;;;;;;;6.47;2.53;;;;;;;;;;4371829;32;65948;-73
2023/09/30 02:30:11;;;;;;;5.37;2.33;;;;;;;;;;4370920;32;68675;-73
2023/09/30 02:32:51;;;;;;;3.75;2.42;;;;;;;;;;3868468;36;43950;-73
2023/09/30 02:35:42;;;;;;;3.40;2.30;;;;;;;;;;4401035;32;60549;-72
2023/09/30 02:38:28;;;;;;;4.30;2.60;;;;;;;;;;4403995;32;69349;-74
2023/09/30 02:41:17;;;;;;;3.42;2.20;;;;;;;;;;4403344;32;69593;-73
2023/09/30 02:44:04;;;;;;;2.72;1.62;;;;;;;;;;4426237;32;67624;-74
2023/09/30 02:46:51;;;;;;;3.35;1.85;;;;;;;;;;4400583;32;73807;-73
2023/09/30 02:49:38;;;;;;;3.28;1.92;;;;;;;;;;4403404;32;66263;-73
2023/09/30 02:52:26;;;;;;;2.17;1.85;;;;;;;;;;4390081;32;68380;-73
2023/09/30 02:55:12;;;;;;;2.80;1.77;;;;;;;;;;4404117;32;58888;-73
2023/09/30 02:58:02;;;;;;;4.03;1.95;;;;;;;;;;4389852;32;72155;-73
2023/09/30 03:00:50;;;;;;;2.85;1.70;;;;;;;;;;4414387;32;64626;-74
2023/09/30 03:03:39;;;;;;;2.95;1.83;;;;;;;;;;4400531;32;68392;-73
2023/09/30 03:06:25;;;;;;;3.30;1.83;;;;;;;;;;4400488;32;60400;-74
2023/09/30 03:09:15;;;;;;;2.87;1.92;;;;;;;;;;4403212;32;70356;-73
2023/09/30 03:12:02;;;;;;;2.72;1.70;;;;;;;;;;4400078;32;70334;-73
2023/09/30 03:14:51;;;;;;;1.75;1.30;;;;;;;;;;4402935;32;67669;-73
2023/09/30 03:17:37;;;;;;;4.05;1.85;;;;;;;;;;4403062;32;71879;-73
2023/09/30 03:20:25;;;;;;;;;;;;;;;;;;4411651;32;66092;-73
2023/09/30 03:23:14;;;;;;;1.90;1.50;;;;;;;;;;4389698;32;71084;-73
2023/09/30 03:26:01;;;;;;;11.65;3.65;;;;;;;;;;4400528;32;67778;-74
2023/09/30 03:28:48;;;;;;;4.45;2.50;;;;;;;;;;4400342;32;72061;-74
2023/09/30 03:31:36;;;;;;;4.45;1.90;;;;;;;;;;4391929;32;66121;-74
2023/09/30 03:34:22;;;;;;;3.08;1.77;;;;;;;;;;4413533;32;67927;-72
2023/09/30 03:37:09;;;;;;;3.05;1.90;;;;;;;;;;4413737;32;60417;-73
2023/09/30 03:39:56;;;;;;;3.80;1.92;;;;;;;;;;4389298;32;71753;-73
2023/09/30 03:42:43;;;;;;;;;;;;;;;;;;4409922;32;68481;-73
2023/09/30 03:45:33;;;;;;;3.70;2.00;;;;;;;;;;4403563;32;67905;-73
2023/09/30 03:48:20;;;;;;;2.97;1.83;;;;;;;;;;4379406;32;58508;-73
2023/09/30 03:51:13;;;;;;;1.67;1.20;;;;;;;;;;4392167;32;70352;-72
2023/09/30 03:56:38;;;;;;;3.97;2.00;;;;;;;;;;3847415;37;43576;-74
2023/09/30 03:59:27;;;;;;;3.62;1.35;;;;;;;;;;4388923;32;59289;-72
2023/09/30 04:02:14;;;;;;;3.28;1.60;;;;;;;;;;4374965;32;71491;-73
2023/09/30 04:04:57;;;;;;;3.22;2.20;;;;;;;;;;3847341;37;42988;-73
2023/09/30 04:07:44;;;;;;;5.32;2.47;;;;;;;;;;4409540;32;60055;-74
2023/09/30 04:10:31;;;;;;;;;;;;;;;;;;4411383;32;70550;-73
2023/09/30 04:13:19;;;;;;;3.05;2.28;;;;;;;;;;4409890;32;69777;-72
2023/09/30 04:16:08;;;;;;;4.85;2.87;;;;;;;;;;4388038;32;68492;-73
2023/09/30 04:18:55;;;;;;;4.68;3.08;;;;;;;;;;4398268;32;72651;-73
2023/09/30 04:21:42;;;;;;;7.03;3.20;;;;;;;;;;4398587;32;66751;-73
2023/09/30 04:24:29;;;;;;;4.35;2.40;;;;;;;;;;4399152;32;67359;-73
2023/09/30 04:27:16;;;;;;;5.78;3.05;;;;;;;;;;4409790;32;59137;-74
2023/09/30 04:30:09;;;;;;;3.72;2.17;;;;;;;;;;4388150;32;71409;-73
2023/09/30 04:32:56;;;;;;;2.85;1.90;;;;;;;;;;4387875;32;67306;-74
2023/09/30 04:35:44;;;;;;;5.35;2.42;;;;;;;;;;4409630;32;66676;-73
2023/09/30 04:38:31;;;;;;;2.65;2.25;;;;;;;;;;4399071;32;59034;-73
2023/09/30 04:41:18;;;;;;;;;;;;;;;;;;4409339;32;70717;-73
2023/09/30 04:44:06;;;;;;;6.32;2.30;;;;;;;;;;4398012;32;69277;-73
2023/09/30 04:46:56;;;;;;;4.80;2.30;;;;;;;;;;4409666;32;67374;-73
2023/09/30 04:49:43;;;;;;;3.08;2.00;;;;;;;;;;4388040;32;71822;-74
2023/09/30 04:52:30;;;;;;;3.15;1.90;;;;;;;;;;4394192;32;66159;-72
2023/09/30 04:55:18;;;;;;;6.07;2.28;;;;;;;;;;4393957;32;68957;-74
2023/09/30 04:58:05;;;;;;;6.15;2.47;;;;;;;;;;4383567;32;66467;-73
2023/09/30 05:00:52;;;;;;;;;;;;;;;;;;4394082;32;71956;-73
2023/09/30 05:03:43;;;;;;;2.03;1.62;;;;;;;;;;4393535;32;65990;-73
2023/09/30 05:06:32;;;;;;;2.08;1.60;;;;;;;;;;4383340;32;67588;-70
2023/09/30 05:09:19;;;;;;;3.00;1.87;;;;;;;;;;4393798;32;59899;-68
2023/09/30 05:12:06;;;;;;;3.65;1.80;;;;;;;;;;4393939;32;70181;-70
2023/09/30 05:14:54;;;;;;;2.12;1.58;;;;;;;;;;4378181;32;68419;-70
2023/09/30 05:17:44;;;;;;;2.58;1.90;;;;;;;;;;4372648;32;68419;-70
2023/09/30 05:20:30;;;;;;;4.07;1.62;;;;;;;;;;4373010;32;60143;-69
2023/09/30 05:23:18;;;;;;;2.80;1.35;;;;;;;;;;4383655;32;70892;-70
2023/09/30 05:26:05;;;;;;;3.40;1.60;;;;;;;;;;4383428;32;69234;-69
2023/09/30 05:28:52;;;;;;;;;;;;;;;;;;4383800;32;67793;-69
2023/09/30 05:31:39;;;;;;;2.85;1.45;;;;;;;;;;4372410;32;72555;-68
2023/09/30 05:34:26;;;;;;;2.47;1.62;;;;;;;;;;4372986;32;66396;-69
2023/09/30 05:37:12;;;;;;;3.65;1.85;;;;;;;;;;4361471;32;68552;-73
2023/09/30 05:40:00;;;;;;;3.30;1.98;;;;;;;;;;4382813;32;60299;-72
2023/09/30 05:42:48;;;;;;;3.45;1.40;;;;;;;;;;4371946;32;70075;-73
2023/09/30 05:45:35;;;;;;;2.92;2.05;;;;;;;;;;4371787;32;67371;-72
2023/09/30 05:48:20;;;;;;;2.83;1.87;;;;;;;;;;3868634;36;43014;-71
2023/09/30 05:51:09;;;;;;;3.35;1.80;;;;;;;;;;4414490;32;58973;-70
2023/09/30 05:53:55;;;;;;;;;;;;;;;;;;4411813;32;69732;-71
2023/09/30 05:56:45;;;;;;;3.08;1.98;;;;;;;;;;4402126;32;70484;-72
2023/09/30 05:59:32;;;;;;;2.67;1.80;;;;;;;;;;4405079;32;66900;-70
2023/09/30 06:02:22;;;;;;;3.42;2.15;;;;;;;;;;4403890;32;70591;-71
2023/09/30 06:05:10;;;;;;;3.87;2.33;;;;;;;;;;4403500;32;65135;-69
2023/09/30 06:07:57;;;;;;;4.03;2.40;;;;;;;;;;4390124;32;67926;-69
2023/09/30 06:10:44;;;;;;;4.18;1.95;;;;;;;;;;4426221;32;60234;-68
2023/09/30 06:13:32;;;;;;;4.37;2.45;;;;;;;;;;4389599;32;72851;-71
2023/09/30 06:16:20;;;;;;;4.35;2.42;;;;;;;;;;4414198;32;65723;-73
2023/09/30 06:19:06;;;;;;;3.87;1.80;;;;;;;;;;4411013;32;67928;-69
2023/09/30 06:21:53;;;;;;;2.17;1.30;;;;;;;;;;4389653;32;59477;-68
2023/09/30 06:24:39;;;;;;;4.10;1.98;;;;;;;;;;4410913;32;70248;-68
2023/09/30 06:27:26;;;;;;;3.60;1.92;;;;;;;;;;4400290;32;70393;-68
2023/09/30 06:30:14;;;;;;;3.55;2.25;;;;;;;;;;4413672;32;67484;-70
2023/09/30 06:33:04;;;;;;;3.67;1.60;;;;;;;;;;4413704;32;71757;-69
2023/09/30 06:35:52;;;;;;;2.70;1.40;;;;;;;;;;4392752;32;65151;-69
2023/09/30 06:38:38;;;;;;;5.32;2.05;;;;;;;;;;4410809;32;68528;-70
2023/09/30 06:41:25;;;;;;;4.03;1.85;;;;;;;;;;4400174;32;67316;-70
2023/09/30 06:44:13;;;;;;;2.25;1.40;;;;;;;;;;4378639;32;73186;-70
2023/09/30 06:46:59;;;;;;;2.72;1.50;;;;;;;;;;4389139;32;66246;-69
2023/09/30 06:49:46;;;;;;;;;;;;;;;;;;4411054;32;67989;-69
2023/09/30 06:52:36;;;;;;;2.53;1.80;;;;;;;;;;4400314;32;60055;-70
2023/09/30 06:55:24;;;;;;;7.60;2.37;;;;;;;;;;4389160;32;70659;-69
2023/09/30 06:58:11;;;;;;;2.67;1.90;;;;;;;;;;4408986;32;69855;-70
2023/09/30 07:00:58;;;;;;;3.45;1.92;;;;;;;;;;4381508;32;67275;-70
2023/09/30 07:03:45;;;;;;;;;;;;;;;;;;4415704;32;59316;-69
2023/09/30 07:06:31;;;;;;;5.30;2.28;;;;;;;;;;4389514;32;71122;-70
2023/09/30 07:09:19;;;;;;;4.15;2.20;;;;;;;;;;4389861;32;71027;-69
2023/09/30 07:12:06;;;;;;;3.30;2.12;;;;;;;;;;4381473;32;66608;-70
2023/09/30 07:14:53;;;;;;;;;;;;;;;;;;4400459;32;70828;-69
2023/09/30 07:17:39;;;;;;;2.67;1.70;;;;;;;;;;4403263;32;66021;-70
2023/09/30 07:20:26;;;;;;;;;;;;;;;;;;4389977;32;67181;-71
2023/09/30 07:23:14;;;;;;;1.67;1.02;;;;;;;;;;4390308;32;59791;-70
2023/09/30 07:26:00;;;;;;;1.62;1.40;;;;;;;;;;4392394;32;70682;-70
2023/09/30 07:28:47;;;;;;;3.15;1.67;;;;;;;;;;4402825;32;65727;-70
2023/09/30 07:31:36;;;;;;;3.03;1.75;;;;;;;;;;4392245;32;67525;-69
2023/09/30 07:34:22;;;;;;;2.78;1.67;;;;;;;;;;4381672;32;60149;-72
2023/09/30 07:37:09;;;;;;;;;;;;;;;;;;4402993;32;69353;-70
2023/09/30 07:39:56;;;;;;;2.47;1.62;;;;;;;;;;4403196;32;69427;-69
2023/09/30 07:42:43;;;;;;;4.50;1.95;;;;;;;;;;4392000;32;67769;-71
2023/09/30 07:45:29;;;;;;;3.60;1.75;;;;;;;;;;4378283;32;73339;-70
2023/09/30 07:48:16;;;;;;;3.50;2.00;;;;;;;;;;4388737;32;67302;-71
2023/09/30 07:51:03;;;;;;;6.47;2.17;;;;;;;;;;4392174;32;67757;-70
2023/09/30 07:53:50;;;;;;;1.45;1.02;;;;;;;;;;4391802;32;67605;-69
2023/09/30 07:56:37;;;;;;;1.83;1.45;;;;;;;;;;4388962;32;72004;-70
2023/09/30 07:59:25;;;;;;;1.67;1.25;;;;;;;;;;4399826;32;66879;-71
2023/09/30 08:02:15;;;;;;;1.77;1.60;;;;;;;;;;4391883;32;67862;-71
2023/09/30 08:05:01;;;;;;;3.10;1.40;;;;;;;;;;4378513;32;60317;-71
2023/09/30 08:07:48;;;;;;;;;;;;;;;;;;4381205;32;70512;-70
2023/09/30 08:10:36;;;;;;;4.55;1.98;;;;;;;;;;4401641;32;69619;-71
2023/09/30 08:13:23;;;;;;;1.52;1.00;;;;;;;;;;4389144;32;68212;-70
2023/09/30 08:16:10;;;;;;;3.53;1.20;;;;;;;;;;4402822;32;60165;-70
2023/09/30 08:18:56;;;;;;;2.45;1.48;;;;;;;;;;4391420;32;70668;-71
2023/09/30 08:21:43;;;;;;;4.57;1.02;;;;;;;;;;4378137;32;69545;-70
2023/09/30 08:24:30;;;;;;;1.12;0.90;;;;;;;;;;4391636;32;67653;-70
2023/09/30 08:27:17;;;;;;;1.40;1.17;;;;;;;;;;4402071;32;71743;-69
2023/09/30 08:30:05;;;;;;;3.53;1.40;;;;;;;;;;4391394;32;65010;-69
2023/09/30 08:32:52;;;;;;;4.10;1.10;;;;;;;;;;4367512;32;65605;-70
2023/09/30 08:35:39;;;;;;;;;;;;;;;;;;4402526;32;59702;-70
2023/09/30 08:38:26;;;;;;;0.90;0.60;;;;;;;;;;4381082;32;69384;-71
2023/09/30 08:41:32;;;;;;;1.12;0.93;;;;;;;;;;4391355;32;66029;-70
2023/09/30 08:44:19;;;;;;;0.77;0.65;;;;;;;;;;4391423;32;67768;-71
2023/09/30 08:47:10;;;;;;;1.50;1.12;;;;;;;;;;4402127;32;59320;-70
2023/09/30 08:50:05;;;;;;;1.83;1.02;;;;;;;;;;4402323;32;70533;-70
2023/09/30 08:52:52;;;;;;;1.17;1.00;;;;;;;;;;4381283;32;69469;-71
2023/09/30 08:55:41;;;;;;;2.15;1.00;;;;;;;;;;4380682;32;66315;-71
2023/09/30 08:58:32;;;;;;;1.10;1.00;;;;;;;;;;4390907;32;70821;-71
2023/09/30 09:01:19;;;;;;;2.67;1.10;;;;;;;;;;4377921;32;66704;-70
2023/09/30 09:04:05;;;;;;;1.92;1.08;;;;;;;;;;4402198;32;66745;-70
2023/09/30 09:06:55;;;;;;;3.03;1.23;;;;;;;;;;4367300;32;68856;-71
2023/09/30 09:09:42;;;;;;;1.05;0.77;;;;;;;;;;4380685;32;71957;-71
2023/09/30 09:12:29;;;;;;;0.93;0.80;;;;;;;;;;4391730;32;65938;-70
2023/09/30 09:15:26;;;;;;;;;;;;;;;;;;4400948;32;67351;-70
2023/09/30 09:18:15;;;;;;;3.00;1.27;;;;;;;;;;4415965;32;59163;-70
2023/09/30 09:21:15;;;;;;;2.28;1.02;;;;;;;;;;4378959;32;70899;-70
2023/09/30 09:24:02;;;;;;;1.60;1.17;;;;;;;;;;4406353;32;68786;-70
2023/09/30 09:26:49;;;;;;;;;;;;;;;;;;4393837;32;67406;-70
2023/09/30 09:29:36;;;;;;;2.55;1.35;;;;;;;;;;4382899;32;72857;-70
2023/09/30 09:32:23;;;;;;;1.35;1.15;;;;;;;;;;4392262;32;71076;-71
2023/09/30 09:35:10;;;;;;;2.15;1.25;;;;;;;;;;4404552;32;70584;-71
2023/09/30 09:38:03;;;;;;;3.25;0.93;;;;;;;;;;4406592;32;68138;-71
2023/09/30 09:40:53;;;;;;;1.48;1.00;;;;;;;;;;4406128;32;71966;-70
2023/09/30 09:43:45;;;;;;;1.45;0.88;;;;;;;;;;4381264;32;67216;-70
2023/09/30 09:46:32;;;;;;;3.87;1.40;;;;;;;;;;4404260;32;66374;-70
2023/09/30 09:49:19;;;;;;;;;;;;;;;;;;4385455;32;59782;-71
2023/09/30 09:52:06;;;;;;;1.58;1.42;;;;;;;;;;4395614;32;69541;-70
2023/09/30 09:54:53;;;;;;;3.47;1.60;;;;;;;;;;4404753;32;69732;-70
2023/09/30 09:57:41;;;;;;;1.98;1.37;;;;;;;;;;4387897;32;68090;-70
2023/09/30 10:00:40;;;;;;;1.77;1.25;;;;;;;;;;3847266;37;43120;-71
2023/09/30 10:03:27;;;;;;;1.73;1.25;;;;;;;;;;4411285;32;59251;-70
2023/09/30 10:06:15;;;;;;;5.50;1.95;;;;;;;;;;4409572;32;70251;-69
2023/09/30 10:09:03;;;;;;;0.93;0.88;;;;;;;;;;4398957;32;68167;-71
2023/09/30 10:11:50;;;;;;;2.08;1.40;;;;;;;;;;4398880;32;67831;-70
2023/09/30 10:14:36;;;;;;;2.72;1.60;;;;;;;;;;4388256;32;71353;-71
2023/09/30 10:18:09;;;;;;;3.00;1.23;;;;;;;;;;4409630;32;66210;-70
2023/09/30 10:21:09;;;;;;;3.42;2.00;;;;;;;;;;4399777;32;67068;-69
2023/09/30 10:24:24;;;;;;;3.55;1.55;;;;;;;;;;4398228;32;60953;-70
2023/09/30 10:27:29;;;;;;;3.37;1.85;;;;;;;;;;4408921;32;70502;-70
2023/09/30 10:30:16;;;;;;;3.28;1.35;;;;;;;;;;4409393;32;65763;-70
2023/09/30 10:33:03;;;;;;;3.28;1.75;;;;;;;;;;4398237;32;67323;-70
2023/09/30 10:35:49;;;;;;;2.65;1.30;;;;;;;;;;4398323;32;59689;-71
2023/09/30 10:38:37;;;;;;;1.27;1.00;;;;;;;;;;4387708;32;70218;-71
2023/09/30 10:41:45;;;;;;;2.60;1.27;;;;;;;;;;4388128;32;69406;-71
2023/09/30 10:44:34;;;;;;;5.12;2.03;;;;;;;;;;4409223;32;66813;-70
2023/09/30 10:47:21;;;;;;;3.15;1.62;;;;;;;;;;4376444;32;72725;-71
2023/09/30 10:50:46;;;;;;;2.37;1.58;;;;;;;;;;4408954;32;66917;-69
2023/09/30 10:53:32;;;;;;;3.58;1.42;;;;;;;;;;4404412;32;68596;-71
2023/09/30 10:56:19;;;;;;;;;;;;;;;;;;4383463;32;67656;-70
2023/09/30 10:59:06;;;;;;;0.80;0.73;;;;;;;;;;4371303;32;72925;-70
2023/09/30 11:01:53;;;;;;;1.73;0.90;;;;;;;;;;4393716;32;65010;-71
2023/09/30 11:04:49;;;;;;;2.15;1.00;;;;;;;;;;4394949;32;67856;-71
2023/09/30 11:07:38;;;;;;;3.55;1.60;;;;;;;;;;4371997;32;60513;-70
2023/09/30 11:10:24;;;;;;;1.30;1.00;;;;;;;;;;4367618;32;71445;-70
2023/09/30 11:13:16;;;;;;;1.55;1.20;;;;;;;;;;4372361;32;70902;-70
2023/09/30 11:16:10;;;;;;;1.52;1.23;;;;;;;;;;4361751;32;67101;-70
2023/09/30 11:18:57;;;;;;;1.87;1.27;;;;;;;;;;4372917;32;59893;-70
2023/09/30 11:21:44;;;;;;;1.62;1.02;;;;;;;;;;4383297;32;69501;-70
2023/09/30 11:24:35;;;;;;;3.40;1.87;;;;;;;;;;4351175;32;68978;-70
2023/09/30 11:27:24;;;;;;;2.72;1.70;;;;;;;;;;4372624;32;66856;-72
2023/09/30 11:30:12;;;;;;;3.12;1.35;;;;;;;;;;4382954;32;72090;-70
2023/09/30 11:33:02;;;;;;;3.22;1.62;;;;;;;;;;4383214;32;66324;-71
2023/09/30 11:36:05;;;;;;;3.17;1.23;;;;;;;;;;4371972;32;68658;-70
2023/09/30 11:38:52;;;;;;;2.15;1.70;;;;;;;;;;4361562;32;60025;-72
2023/09/30 11:41:41;;;;;;;2.75;1.58;;;;;;;;;;4361196;32;69905;-70
2023/09/30 11:44:32;;;;;;;3.80;1.80;;;;;;;;;;4383091;32;65345;-71
2023/09/30 11:47:34;;;;;;;2.28;1.40;;;;;;;;;;4361271;32;67331;-70
2023/09/30 11:50:24;;;;;;;2.87;1.75;;;;;;;;;;4383367;32;59957;-70
2023/09/30 11:53:17;;;;;;;4.35;1.75;;;;;;;;;;4372038;32;70250;-70
2023/09/30 11:56:04;;;;;;;4.00;1.35;;;;;;;;;;4361838;32;69726;-68
2023/09/30 11:58:51;;;;;;;3.80;1.62;;;;;;;;;;4350541;32;67687;-70
2023/09/30 12:01:38;;;;;;;2.35;1.23;;;;;;;;;;4382086;32;72018;-69
2023/09/30 12:04:24;;;;;;;1.65;1.25;;;;;;;;;;4360819;32;66645;-71
2023/09/30 12:07:11;;;;;;;1.40;1.30;;;;;;;;;;4382983;32;66908;-70
2023/09/30 12:09:58;;;;;;;3.97;1.90;;;;;;;;;;4382577;32;67561;-70
2023/09/30 12:12:44;;;;;;;2.37;1.90;;;;;;;;;;4371868;32;70892;-70
2023/09/30 12:15:31;;;;;;;;;;;;;;;;;;4372406;32;66266;-70
2023/09/30 12:18:23;;;;;;;3.30;1.80;;;;;;;;;;4383965;32;67851;-70
2023/09/30 12:21:13;;;;;;;2.30;1.62;;;;;;;;;;4371226;32;61010;-70
2023/09/30 12:24:01;;;;;;;2.80;2.08;;;;;;;;;;4371205;32;69642;-71
2023/09/30 12:26:49;;;;;;;4.32;2.47;;;;;;;;;;4371568;32;69406;-70
2023/09/30 12:29:38;;;;;;;3.87;2.03;;;;;;;;;;4360973;32;67276;-70
2023/09/30 12:32:25;;;;;;;2.17;1.83;;;;;;;;;;4371114;32;60253;-70
2023/09/30 12:35:11;;;;;;;4.37;2.22;;;;;;;;;;4382207;32;70897;-69
2023/09/30 12:37:58;;;;;;;3.15;2.00;;;;;;;;;;4360304;32;67866;-69
2023/09/30 12:40:45;;;;;;;3.92;1.80;;;;;;;;;;4371583;32;68064;-71
2023/09/30 12:43:31;;;;;;;2.60;1.83;;;;;;;;;;4360846;32;71794;-69
2023/09/30 12:46:18;;;;;;;;;;;;;;;;;;4372156;32;64724;-70
2023/09/30 12:50:11;;;;;;;5.97;3.10;;;;;;;;;;3847236;37;43063;-70
2023/09/30 12:52:59;;;;;;;4.55;2.70;;;;;;;;;;4399663;32;59064;-70
2023/09/30 12:55:45;;;;;;;5.57;2.42;;;;;;;;;;4410743;32;70468;-70
2023/09/30 12:58:32;;;;;;;;;;;;;;;;;;4410375;32;69439;-70
2023/09/30 13:01:18;;;;;;;6.07;3.00;;;;;;;;;;4398911;32;67686;-70
2023/09/30 13:04:08;;;;;;;;;;;;;;;;;;4398469;32;72661;-70
2023/09/30 13:09:39;;;;;;;2.87;1.70;;;;;;;;;;3847259;37;43420;-71
2023/09/30 13:12:27;;;;;;;6.15;2.65;;;;;;;;;;4411080;32;59935;-69
2023/09/30 13:15:14;;;;;;;6.12;2.83;;;;;;;;;;4387773;32;71333;-70
2023/09/30 13:18:03;;;;;;;5.25;2.67;;;;;;;;;;4409503;32;69101;-69
2023/09/30 13:20:49;;;;;;;5.10;2.45;;;;;;;;;;4408723;32;68563;-70
2023/09/30 13:23:36;;;;;;;;;;;;;;;;;;4409925;32;71632;-69
2023/09/30 13:26:22;;;;;;;4.95;2.35;;;;;;;;;;4376973;32;67501;-70
2023/09/30 13:29:12;;;;;;;;;;;;;;;;;;4398380;32;68029;-69
2023/09/30 13:31:59;;;;;;;2.95;1.83;;;;;;;;;;4409765;32;59055;-70
2023/09/30 13:34:46;;;;;;;3.50;2.12;;;;;;;;;;4410614;32;70887;-70
2023/09/30 13:37:33;;;;;;;4.00;2.62;;;;;;;;;;4398565;32;65795;-70
2023/09/30 13:40:20;;;;;;;6.37;3.05;;;;;;;;;;4376708;32;66358;-70
2023/09/30 13:43:06;;;;;;;;;;;;;;;;;;4399173;32;60207;-69
2023/09/30 13:45:53;;;;;;;8.25;4.03;;;;;;;;;;4386828;32;70225;-70
2023/09/30 13:48:40;;;;;;;6.18;3.00;;;;;;;;;;4409063;32;68308;-70
2023/09/30 13:51:27;;;;;;;6.32;2.85;;;;;;;;;;4386963;32;68391;-70
2023/09/30 13:54:14;;;;;;;;;;;;;;;;;;4398134;32;71235;-70
2023/09/30 13:57:01;;;;;;;7.47;3.62;;;;;;;;;;4387532;32;67352;-70
2023/09/30 13:59:48;;;;;;;6.60;3.40;;;;;;;;;;4397844;32;69621;-70
2023/09/30 14:02:35;;;;;;;10.13;4.55;;;;;;;;;;4408919;32;67243;-70
2023/09/30 14:05:23;;;;;;;8.90;4.25;;;;;;;;;;4398168;32;71999;-70
2023/09/30 14:08:09;;;;;;;9.02;5.40;;;;;;;;;;4397110;32;66882;-72
2023/09/30 14:10:56;;;;;;;11.73;5.50;;;;;;;;;;4398258;32;67439;-70
2023/09/30 14:16:26;;;;;;;11.68;6.15;;;;;;;;;;3847293;37;43147;-70
2023/09/30 14:19:13;;;;;;;13.25;6.93;;;;;;;;;;4399494;32;60264;-70
2023/09/30 14:24:42;;;;;;;14.80;8.52;;;;;;;;;;3868609;36;43775;-69
2023/09/30 14:27:29;;;;;;;14.87;9.00;;;;;;;;;;4414332;32;58268;-69
2023/09/30 14:30:15;;;;;;;;;;;;;;;;;;4414357;32;70652;-70
2023/09/30 14:33:03;;;;;;;19.73;10.93;;;;;;;;;;4390392;32;69606;-70
2023/09/30 14:35:49;;;;;;;19.05;11.00;;;;;;;;;;4403313;32;67820;-69
2023/09/30 14:38:37;;;;;;;20.88;12.30;;;;;;;;;;4403146;32;71302;-69
2023/09/30 14:41:23;;;;;;;23.23;12.50;;;;;;;;;;4400669;32;67919;-69
2023/09/30 14:44:11;;;;;;;24.08;13.50;;;;;;;;;;4400558;32;65037;-68
2023/09/30 14:46:58;;;;;;;22.30;12.15;;;;;;;;;;4389765;32;60239;-69
2023/09/30 14:49:45;;;;;;;;;;;;;;;;;;4411208;32;72016;-70
2023/09/30 14:52:31;;;;;;;24.37;12.55;;;;;;;;;;4406270;32;65997;-69
2023/09/30 14:55:17;;;;;;;22.83;12.80;;;;;;;;;;4410825;32;67928;-69
2023/09/30 14:58:04;;;;;;;29.17;14.60;;;;;;;;;;4398714;32;60415;-70
2023/09/30 15:00:51;;;;;;;28.17;15.02;;;;;;;;;;4384952;32;71952;-70
2023/09/30 15:03:38;;;;;;;35.00;17.37;;;;;;;;;;4398383;32;69770;-70
2023/09/30 15:06:25;;;;;;;29.52;16.60;;;;;;;;;;4410391;32;67598;-70
2023/09/30 15:09:11;;;;;;;31.80;15.90;;;;;;;;;;4387283;32;70706;-70
2023/09/30 15:11:58;;;;;;;31.02;15.30;;;;;;;;;;4398566;32;66056;-69
2023/09/30 15:14:45;;;;;;;24.60;14.68;;;;;;;;;;4385111;32;70080;-70
2023/09/30 15:17:32;;;;;;;23.30;13.35;;;;;;;;;;4398222;32;67871;-69
2023/09/30 15:20:18;;;;;;;;;;;;;;;;;;4398646;32;71033;-69
2023/09/30 15:23:05;;;;;;;23.23;12.15;;;;;;;;;;4387311;32;66748;-69
2023/09/30 15:25:52;;;;;;;25.15;13.68;;;;;;;;;;4398069;32;66834;-71
2023/09/30 15:28:39;;;;;;;21.73;13.10;;;;;;;;;;4398524;32;60820;-70
2023/09/30 15:31:29;;;;;;;;;;;;;;;;;;4410399;32;70018;-69
2023/09/30 15:34:16;;;;;;;24.40;12.57;;;;;;;;;;4395199;32;68970;-70
2023/09/30 15:37:03;;;;;;;22.55;11.73;;;;;;;;;;4385167;32;68958;-70
2023/09/30 15:39:50;;;;;;;20.62;11.00;;;;;;;;;;4388082;32;60776;-70
2023/09/30 15:42:37;;;;;;;21.87;10.27;;;;;;;;;;4387713;32;69687;-69
2023/09/30 15:45:24;;;;;;;17.65;11.27;;;;;;;;;;4387929;32;68961;-69
2023/09/30 15:48:12;;;;;;;19.65;9.70;;;;;;;;;;4374830;32;68352;-69
2023/09/30 15:50:59;;;;;;;18.60;9.38;;;;;;;;;;4374247;32;73360;-69
2023/09/30 15:53:46;;;;;;;18.17;10.32;;;;;;;;;;4387822;32;64796;-70
2023/09/30 15:56:32;;;;;;;15.48;8.77;;;;;;;;;;4399679;32;67460;-69
2023/09/30 15:59:22;;;;;;;15.52;8.02;;;;;;;;;;4374602;32;61557;-69
2023/09/30 16:02:08;;;;;;;15.23;8.40;;;;;;;;;;4399621;32;70566;-69
2023/09/30 16:05:12;;;;;;;13.27;7.12;;;;;;;;;;3868896;36;43418;-70
2023/09/30 16:07:59;;;;;;;15.68;8.45;;;;;;;;;;4393445;32;59194;-71
2023/09/30 16:10:45;;;;;;;14.30;7.68;;;;;;;;;;4414383;32;70570;-71
2023/09/30 16:13:33;;;;;;;16.67;7.85;;;;;;;;;;4411469;32;69495;-70
2023/09/30 16:16:20;;;;;;;16.25;7.43;;;;;;;;;;4414400;32;67453;-70
2023/09/30 16:19:06;;;;;;;15.30;9.00;;;;;;;;;;4389912;32;73279;-70
2023/09/30 16:21:53;;;;;;;19.30;8.63;;;;;;;;;;4426360;32;65971;-69
2023/09/30 16:24:40;;;;;;;10.90;6.15;;;;;;;;;;4389959;32;66852;-69
2023/09/30 16:27:28;;;;;;;12.20;6.15;;;;;;;;;;4389915;32;61765;-71
2023/09/30 16:30:19;;;;;;;13.60;7.15;;;;;;;;;;4390191;32;71843;-71
2023/09/30 16:33:05;;;;;;;13.13;6.62;;;;;;;;;;4400314;32;66384;-70
2023/09/30 16:35:52;;;;;;;;;;;;;;;;;;4390014;32;67035;-70
2023/09/30 16:38:37;;;;;;;11.20;6.20;;;;;;;;;;3847432;37;43842;-69
2023/09/30 16:41:24;;;;;;;10.68;5.20;;;;;;;;;;4387780;32;60270;-70
2023/09/30 16:44:11;;;;;;;8.18;4.95;;;;;;;;;;4409137;32;70426;-70
2023/09/30 16:46:57;;;;;;;9.50;5.35;;;;;;;;;;4409100;32;70833;-72
2023/09/30 16:49:47;;;;;;;10.15;4.82;;;;;;;;;;4411072;32;66680;-70
2023/09/30 16:52:34;;;;;;;10.52;4.55;;;;;;;;;;4383320;32;73239;-70
2023/09/30 16:55:20;;;;;;;10.48;5.57;;;;;;;;;;4383636;32;64852;-70
2023/09/30 16:58:09;;;;;;;8.40;5.25;;;;;;;;;;4394208;32;67184;-72
2023/09/30 17:00:56;;;;;;;7.72;4.45;;;;;;;;;;4382852;32;61448;-71
2023/09/30 17:03:43;;;;;;;8.88;5.40;;;;;;;;;;4383381;32;71798;-70
2023/09/30 17:06:30;;;;;;;;;;;;;;;;;;4383004;32;67263;-70
2023/09/30 17:09:17;;;;;;;11.07;4.75;;;;;;;;;;4394287;32;66511;-71
2023/09/30 17:12:03;;;;;;;;;;;;;;;;;;4383222;32;61143;-70